sensor_id;sensor_type;location;lat;lon;timestamp;P1;durP1;ratioP1;P2;durP2;ratioP2
840;SDS011;406;48.566;13.450;2022-11-20T00:01:40;24.47;;;14.80;;
840;SDS011;406;48.566;13.450;2022-11-20T00:04:06;23.90;;;13.20;;
840;SDS011;406;48.566;13.450;2022-11-20T00:06:32;25.90;;;15.85;;
840;SDS011;406;48.566;13.450;2022-11-20T00:08:59;20.90;;;12.90;;
840;SDS011;406;48.566;13.450;2022-11-20T00:11:27;24.73;;;13.73;;
840;SDS011;406;48.566;13.450;2022-11-20T00:13:54;26.13;;;15.20;;
840;SDS011;406;48.566;13.450;2022-11-20T00:16:25;26.65;;;15.40;;
840;SDS011;406;48.566;13.450;2022-11-20T00:18:52;28.80;;;14.07;;
840;SDS011;406;48.566;13.450;2022-11-20T00:21:22;25.67;;;15.80;;
840;SDS011;406;48.566;13.450;2022-11-20T00:23:48;22.70;;;14.27;;
840;SDS011;406;48.566;13.450;2022-11-20T00:26:15;27.75;;;14.68;;
840;SDS011;406;48.566;13.450;2022-11-20T00:28:42;25.35;;;14.77;;
840;SDS011;406;48.566;13.450;2022-11-20T00:31:13;21.88;;;15.13;;
840;SDS011;406;48.566;13.450;2022-11-20T00:33:39;26.38;;;15.75;;
840;SDS011;406;48.566;13.450;2022-11-20T00:36:13;23.40;;;15.27;;
840;SDS011;406;48.566;13.450;2022-11-20T00:38:40;26.05;;;15.80;;
840;SDS011;406;48.566;13.450;2022-11-20T00:41:06;26.50;;;15.73;;
840;SDS011;406;48.566;13.450;2022-11-20T00:43:33;27.20;;;16.17;;
840;SDS011;406;48.566;13.450;2022-11-20T00:45:59;24.03;;;15.03;;
840;SDS011;406;48.566;13.450;2022-11-20T00:48:25;25.38;;;17.85;;
840;SDS011;406;48.566;13.450;2022-11-20T00:50:51;25.13;;;15.83;;
840;SDS011;406;48.566;13.450;2022-11-20T00:53:17;25.70;;;16.63;;
840;SDS011;406;48.566;13.450;2022-11-20T00:55:42;24.73;;;15.40;;
840;SDS011;406;48.566;13.450;2022-11-20T00:58:08;23.40;;;14.73;;
840;SDS011;406;48.566;13.450;2022-11-20T01:00:33;26.73;;;15.70;;
840;SDS011;406;48.566;13.450;2022-11-20T01:02:59;27.53;;;17.50;;
840;SDS011;406;48.566;13.450;2022-11-20T01:05:25;27.20;;;16.07;;
840;SDS011;406;48.566;13.450;2022-11-20T01:07:50;25.20;;;13.93;;
840;SDS011;406;48.566;13.450;2022-11-20T01:10:15;24.03;;;14.43;;
840;SDS011;406;48.566;13.450;2022-11-20T01:12:42;28.15;;;16.10;;
840;SDS011;406;48.566;13.450;2022-11-20T01:15:08;27.27;;;15.27;;
840;SDS011;406;48.566;13.450;2022-11-20T01:17:33;27.10;;;14.90;;
840;SDS011;406;48.566;13.450;2022-11-20T01:19:59;27.83;;;17.63;;
840;SDS011;406;48.566;13.450;2022-11-20T01:22:24;25.00;;;15.23;;
840;SDS011;406;48.566;13.450;2022-11-20T01:24:50;29.20;;;16.13;;
840;SDS011;406;48.566;13.450;2022-11-20T01:27:15;25.90;;;16.90;;
840;SDS011;406;48.566;13.450;2022-11-20T01:29:40;23.93;;;15.50;;
840;SDS011;406;48.566;13.450;2022-11-20T01:32:06;24.60;;;15.53;;
840;SDS011;406;48.566;13.450;2022-11-20T01:34:31;29.70;;;17.23;;
840;SDS011;406;48.566;13.450;2022-11-20T01:36:57;29.30;;;17.80;;
840;SDS011;406;48.566;13.450;2022-11-20T01:39:23;24.27;;;14.57;;
840;SDS011;406;48.566;13.450;2022-11-20T01:41:50;25.55;;;17.48;;
840;SDS011;406;48.566;13.450;2022-11-20T01:44:58;28.73;;;17.35;;
840;SDS011;406;48.566;13.450;2022-11-20T01:47:29;24.98;;;14.80;;
840;SDS011;406;48.566;13.450;2022-11-20T01:50:21;25.77;;;15.95;;
840;SDS011;406;48.566;13.450;2022-11-20T01:52:49;21.75;;;14.27;;
840;SDS011;406;48.566;13.450;2022-11-20T01:55:18;31.67;;;18.65;;
840;SDS011;406;48.566;13.450;2022-11-20T01:57:45;25.17;;;16.00;;
840;SDS011;406;48.566;13.450;2022-11-20T02:00:12;27.70;;;16.75;;
840;SDS011;406;48.566;13.450;2022-11-20T02:02:40;22.98;;;12.93;;
840;SDS011;406;48.566;13.450;2022-11-20T02:05:11;25.40;;;13.73;;
840;SDS011;406;48.566;13.450;2022-11-20T02:07:43;24.92;;;15.65;;
840;SDS011;406;48.566;13.450;2022-11-20T02:10:08;24.90;;;15.70;;
840;SDS011;406;48.566;13.450;2022-11-20T02:12:34;26.53;;;14.30;;
840;SDS011;406;48.566;13.450;2022-11-20T02:15:18;23.45;;;14.45;;
840;SDS011;406;48.566;13.450;2022-11-20T02:17:43;32.20;;;17.70;;
840;SDS011;406;48.566;13.450;2022-11-20T02:20:09;24.33;;;15.40;;
840;SDS011;406;48.566;13.450;2022-11-20T02:22:36;22.27;;;15.07;;
840;SDS011;406;48.566;13.450;2022-11-20T02:25:08;26.65;;;14.90;;
840;SDS011;406;48.566;13.450;2022-11-20T02:27:34;26.25;;;16.33;;
840;SDS011;406;48.566;13.450;2022-11-20T02:30:01;31.10;;;15.20;;
840;SDS011;406;48.566;13.450;2022-11-20T02:32:32;27.35;;;15.93;;
840;SDS011;406;48.566;13.450;2022-11-20T02:35:06;23.35;;;14.10;;
840;SDS011;406;48.566;13.450;2022-11-20T02:37:34;26.80;;;14.95;;
840;SDS011;406;48.566;13.450;2022-11-20T02:40:01;23.00;;;13.95;;
840;SDS011;406;48.566;13.450;2022-11-20T02:42:27;27.43;;;14.03;;
840;SDS011;406;48.566;13.450;2022-11-20T02:44:53;26.07;;;15.20;;
840;SDS011;406;48.566;13.450;2022-11-20T02:47:18;29.33;;;14.60;;
840;SDS011;406;48.566;13.450;2022-11-20T02:49:44;25.77;;;15.67;;
840;SDS011;406;48.566;13.450;2022-11-20T02:52:09;21.07;;;14.00;;
840;SDS011;406;48.566;13.450;2022-11-20T02:54:35;24.33;;;13.70;;
840;SDS011;406;48.566;13.450;2022-11-20T02:57:00;22.03;;;14.43;;
840;SDS011;406;48.566;13.450;2022-11-20T02:59:26;24.37;;;14.47;;
840;SDS011;406;48.566;13.450;2022-11-20T03:01:51;26.33;;;14.73;;
840;SDS011;406;48.566;13.450;2022-11-20T03:04:17;27.00;;;14.00;;
840;SDS011;406;48.566;13.450;2022-11-20T03:06:42;23.00;;;14.17;;
840;SDS011;406;48.566;13.450;2022-11-20T03:09:08;25.40;;;15.60;;
840;SDS011;406;48.566;13.450;2022-11-20T03:11:34;23.73;;;13.70;;
840;SDS011;406;48.566;13.450;2022-11-20T03:14:03;24.60;;;13.80;;
840;SDS011;406;48.566;13.450;2022-11-20T03:16:30;26.17;;;14.40;;
840;SDS011;406;48.566;13.450;2022-11-20T03:18:56;25.35;;;14.23;;
840;SDS011;406;48.566;13.450;2022-11-20T03:21:21;26.43;;;14.00;;
840;SDS011;406;48.566;13.450;2022-11-20T03:23:47;24.80;;;14.00;;
840;SDS011;406;48.566;13.450;2022-11-20T03:26:23;26.43;;;15.93;;
840;SDS011;406;48.566;13.450;2022-11-20T03:28:56;29.75;;;18.42;;
840;SDS011;406;48.566;13.450;2022-11-20T03:31:23;24.60;;;14.82;;
840;SDS011;406;48.566;13.450;2022-11-20T03:33:50;24.40;;;16.83;;
840;SDS011;406;48.566;13.450;2022-11-20T03:36:17;28.57;;;16.37;;
840;SDS011;406;48.566;13.450;2022-11-20T03:38:43;30.00;;;17.33;;
840;SDS011;406;48.566;13.450;2022-11-20T03:41:10;28.77;;;17.87;;
840;SDS011;406;48.566;13.450;2022-11-20T03:43:38;30.67;;;17.95;;
840;SDS011;406;48.566;13.450;2022-11-20T03:46:04;27.63;;;16.73;;
840;SDS011;406;48.566;13.450;2022-11-20T03:48:30;23.23;;;14.85;;
840;SDS011;406;48.566;13.450;2022-11-20T03:51:09;26.63;;;16.40;;
840;SDS011;406;48.566;13.450;2022-11-20T03:53:40;26.27;;;14.05;;
840;SDS011;406;48.566;13.450;2022-11-20T03:56:06;28.08;;;14.68;;
840;SDS011;406;48.566;13.450;2022-11-20T03:58:33;31.23;;;16.95;;
840;SDS011;406;48.566;13.450;2022-11-20T04:01:20;26.67;;;12.52;;
840;SDS011;406;48.566;13.450;2022-11-20T04:03:47;26.17;;;16.88;;
840;SDS011;406;48.566;13.450;2022-11-20T04:06:17;27.87;;;15.70;;
840;SDS011;406;48.566;13.450;2022-11-20T04:08:44;24.88;;;12.93;;
840;SDS011;406;48.566;13.450;2022-11-20T04:11:14;31.17;;;16.33;;
840;SDS011;406;48.566;13.450;2022-11-20T04:13:53;23.88;;;14.70;;
840;SDS011;406;48.566;13.450;2022-11-20T04:16:23;19.30;;;12.75;;
840;SDS011;406;48.566;13.450;2022-11-20T04:18:55;28.70;;;15.35;;
840;SDS011;406;48.566;13.450;2022-11-20T04:21:23;26.63;;;15.43;;
840;SDS011;406;48.566;13.450;2022-11-20T04:23:49;21.42;;;12.73;;
840;SDS011;406;48.566;13.450;2022-11-20T04:26:15;19.50;;;12.95;;
840;SDS011;406;48.566;13.450;2022-11-20T04:28:41;21.50;;;12.87;;
840;SDS011;406;48.566;13.450;2022-11-20T04:33:39;24.13;;;14.17;;
840;SDS011;406;48.566;13.450;2022-11-20T04:36:06;23.83;;;14.70;;
840;SDS011;406;48.566;13.450;2022-11-20T04:38:33;26.45;;;14.73;;
840;SDS011;406;48.566;13.450;2022-11-20T04:41:00;28.40;;;15.20;;
840;SDS011;406;48.566;13.450;2022-11-20T04:43:27;29.27;;;14.85;;
840;SDS011;406;48.566;13.450;2022-11-20T04:45:53;26.80;;;15.17;;
840;SDS011;406;48.566;13.450;2022-11-20T04:48:19;30.60;;;15.63;;
840;SDS011;406;48.566;13.450;2022-11-20T04:50:45;22.13;;;13.73;;
840;SDS011;406;48.566;13.450;2022-11-20T04:53:10;22.60;;;14.00;;
840;SDS011;406;48.566;13.450;2022-11-20T04:55:36;30.53;;;16.47;;
840;SDS011;406;48.566;13.450;2022-11-20T04:58:01;26.97;;;14.13;;
840;SDS011;406;48.566;13.450;2022-11-20T05:00:27;29.03;;;15.13;;
840;SDS011;406;48.566;13.450;2022-11-20T05:02:52;29.20;;;14.40;;
840;SDS011;406;48.566;13.450;2022-11-20T05:05:18;22.87;;;14.30;;
840;SDS011;406;48.566;13.450;2022-11-20T05:07:43;28.93;;;14.73;;
840;SDS011;406;48.566;13.450;2022-11-20T05:10:09;26.77;;;14.10;;
840;SDS011;406;48.566;13.450;2022-11-20T05:12:34;21.03;;;13.70;;
840;SDS011;406;48.566;13.450;2022-11-20T05:15:00;27.03;;;15.10;;
840;SDS011;406;48.566;13.450;2022-11-20T05:17:25;23.57;;;13.97;;
840;SDS011;406;48.566;13.450;2022-11-20T05:19:51;26.93;;;15.07;;
840;SDS011;406;48.566;13.450;2022-11-20T05:22:16;24.53;;;13.33;;
840;SDS011;406;48.566;13.450;2022-11-20T05:24:41;24.37;;;12.30;;
840;SDS011;406;48.566;13.450;2022-11-20T05:27:07;28.27;;;13.30;;
840;SDS011;406;48.566;13.450;2022-11-20T05:29:32;25.37;;;13.70;;
840;SDS011;406;48.566;13.450;2022-11-20T05:31:58;23.97;;;13.80;;
840;SDS011;406;48.566;13.450;2022-11-20T05:34:23;23.43;;;14.27;;
840;SDS011;406;48.566;13.450;2022-11-20T05:36:49;30.07;;;18.07;;
840;SDS011;406;48.566;13.450;2022-11-20T05:39:14;24.93;;;16.93;;
840;SDS011;406;48.566;13.450;2022-11-20T05:41:40;27.30;;;16.10;;
840;SDS011;406;48.566;13.450;2022-11-20T05:44:05;29.63;;;17.27;;
840;SDS011;406;48.566;13.450;2022-11-20T05:46:31;33.80;;;18.50;;
840;SDS011;406;48.566;13.450;2022-11-20T05:48:56;31.23;;;19.23;;
840;SDS011;406;48.566;13.450;2022-11-20T05:51:23;31.23;;;17.87;;
840;SDS011;406;48.566;13.450;2022-11-20T05:53:48;29.10;;;18.33;;
840;SDS011;406;48.566;13.450;2022-11-20T05:56:18;29.83;;;17.93;;
840;SDS011;406;48.566;13.450;2022-11-20T05:58:44;30.85;;;17.02;;
840;SDS011;406;48.566;13.450;2022-11-20T06:01:15;30.75;;;18.85;;
840;SDS011;406;48.566;13.450;2022-11-20T06:03:42;32.92;;;19.55;;
840;SDS011;406;48.566;13.450;2022-11-20T06:06:10;27.08;;;17.10;;
840;SDS011;406;48.566;13.450;2022-11-20T06:08:36;28.23;;;16.37;;
840;SDS011;406;48.566;13.450;2022-11-20T06:11:05;24.87;;;16.17;;
840;SDS011;406;48.566;13.450;2022-11-20T06:13:32;26.90;;;14.88;;
840;SDS011;406;48.566;13.450;2022-11-20T06:15:58;26.02;;;14.60;;
840;SDS011;406;48.566;13.450;2022-11-20T06:18:25;28.27;;;14.87;;
840;SDS011;406;48.566;13.450;2022-11-20T06:20:58;24.80;;;14.73;;
840;SDS011;406;48.566;13.450;2022-11-20T06:23:27;25.88;;;16.40;;
840;SDS011;406;48.566;13.450;2022-11-20T06:25:53;22.90;;;15.02;;
840;SDS011;406;48.566;13.450;2022-11-20T06:28:19;27.70;;;17.00;;
840;SDS011;406;48.566;13.450;2022-11-20T06:30:44;26.43;;;15.07;;
840;SDS011;406;48.566;13.450;2022-11-20T06:33:11;27.30;;;15.43;;
840;SDS011;406;48.566;13.450;2022-11-20T06:35:36;25.53;;;16.80;;
840;SDS011;406;48.566;13.450;2022-11-20T06:38:02;24.13;;;16.83;;
840;SDS011;406;48.566;13.450;2022-11-20T06:40:27;25.17;;;15.00;;
840;SDS011;406;48.566;13.450;2022-11-20T06:42:53;26.80;;;16.30;;
840;SDS011;406;48.566;13.450;2022-11-20T06:45:19;21.92;;;14.25;;
840;SDS011;406;48.566;13.450;2022-11-20T06:47:45;22.10;;;14.20;;
840;SDS011;406;48.566;13.450;2022-11-20T06:50:10;31.17;;;15.90;;
840;SDS011;406;48.566;13.450;2022-11-20T06:52:36;24.13;;;15.73;;
840;SDS011;406;48.566;13.450;2022-11-20T06:55:01;24.53;;;14.43;;
840;SDS011;406;48.566;13.450;2022-11-20T06:57:27;24.63;;;12.80;;
840;SDS011;406;48.566;13.450;2022-11-20T06:59:52;26.07;;;15.93;;
840;SDS011;406;48.566;13.450;2022-11-20T07:02:17;24.30;;;13.97;;
840;SDS011;406;48.566;13.450;2022-11-20T07:04:43;21.93;;;14.40;;
840;SDS011;406;48.566;13.450;2022-11-20T07:07:08;23.93;;;14.23;;
840;SDS011;406;48.566;13.450;2022-11-20T07:09:34;23.83;;;13.93;;
840;SDS011;406;48.566;13.450;2022-11-20T07:11:59;23.60;;;15.87;;
840;SDS011;406;48.566;13.450;2022-11-20T07:14:25;29.47;;;16.73;;
840;SDS011;406;48.566;13.450;2022-11-20T07:16:51;23.60;;;14.17;;
840;SDS011;406;48.566;13.450;2022-11-20T07:19:16;25.10;;;16.17;;
840;SDS011;406;48.566;13.450;2022-11-20T07:21:41;23.60;;;13.83;;
840;SDS011;406;48.566;13.450;2022-11-20T07:24:07;20.83;;;13.83;;
840;SDS011;406;48.566;13.450;2022-11-20T07:26:32;23.20;;;14.83;;
840;SDS011;406;48.566;13.450;2022-11-20T07:28:58;20.40;;;12.77;;
840;SDS011;406;48.566;13.450;2022-11-20T07:31:23;21.27;;;13.27;;
840;SDS011;406;48.566;13.450;2022-11-20T07:33:50;19.43;;;12.37;;
840;SDS011;406;48.566;13.450;2022-11-20T07:36:15;18.80;;;11.67;;
840;SDS011;406;48.566;13.450;2022-11-20T07:38:41;20.93;;;12.50;;
840;SDS011;406;48.566;13.450;2022-11-20T07:41:06;18.97;;;12.00;;
840;SDS011;406;48.566;13.450;2022-11-20T07:43:32;16.30;;;11.23;;
840;SDS011;406;48.566;13.450;2022-11-20T07:45:58;16.83;;;10.80;;
840;SDS011;406;48.566;13.450;2022-11-20T07:48:24;21.40;;;10.43;;
840;SDS011;406;48.566;13.450;2022-11-20T07:50:53;17.17;;;9.37;;
840;SDS011;406;48.566;13.450;2022-11-20T07:53:18;17.23;;;10.23;;
840;SDS011;406;48.566;13.450;2022-11-20T07:55:46;16.25;;;10.13;;
840;SDS011;406;48.566;13.450;2022-11-20T07:58:11;14.63;;;9.57;;
840;SDS011;406;48.566;13.450;2022-11-20T08:00:37;17.83;;;9.20;;
840;SDS011;406;48.566;13.450;2022-11-20T08:03:03;12.80;;;8.20;;
840;SDS011;406;48.566;13.450;2022-11-20T08:05:29;12.87;;;8.40;;
840;SDS011;406;48.566;13.450;2022-11-20T08:07:55;13.07;;;8.30;;
840;SDS011;406;48.566;13.450;2022-11-20T08:10:20;9.77;;;7.27;;
840;SDS011;406;48.566;13.450;2022-11-20T08:12:47;13.30;;;8.03;;
840;SDS011;406;48.566;13.450;2022-11-20T08:15:32;10.50;;;7.93;;
840;SDS011;406;48.566;13.450;2022-11-20T08:18:02;12.30;;;8.27;;
840;SDS011;406;48.566;13.450;2022-11-20T08:20:31;13.27;;;8.70;;
840;SDS011;406;48.566;13.450;2022-11-20T08:23:01;13.33;;;7.33;;
840;SDS011;406;48.566;13.450;2022-11-20T08:25:28;11.87;;;7.20;;
840;SDS011;406;48.566;13.450;2022-11-20T08:27:57;10.33;;;7.50;;
840;SDS011;406;48.566;13.450;2022-11-20T08:30:23;12.03;;;7.60;;
840;SDS011;406;48.566;13.450;2022-11-20T08:32:49;16.77;;;8.23;;
840;SDS011;406;48.566;13.450;2022-11-20T08:35:14;11.80;;;7.67;;
840;SDS011;406;48.566;13.450;2022-11-20T08:37:40;13.33;;;6.47;;
840;SDS011;406;48.566;13.450;2022-11-20T08:40:08;11.10;;;6.40;;
840;SDS011;406;48.566;13.450;2022-11-20T08:42:35;9.87;;;6.73;;
840;SDS011;406;48.566;13.450;2022-11-20T08:45:00;10.50;;;7.50;;
840;SDS011;406;48.566;13.450;2022-11-20T08:47:26;13.07;;;7.73;;
840;SDS011;406;48.566;13.450;2022-11-20T08:49:51;10.33;;;6.97;;
840;SDS011;406;48.566;13.450;2022-11-20T08:52:16;11.50;;;7.53;;
840;SDS011;406;48.566;13.450;2022-11-20T08:54:42;11.27;;;7.50;;
840;SDS011;406;48.566;13.450;2022-11-20T08:57:07;10.47;;;7.30;;
840;SDS011;406;48.566;13.450;2022-11-20T08:59:33;10.20;;;6.60;;
840;SDS011;406;48.566;13.450;2022-11-20T09:01:58;9.83;;;6.30;;
840;SDS011;406;48.566;13.450;2022-11-20T09:04:24;11.80;;;6.40;;
840;SDS011;406;48.566;13.450;2022-11-20T09:06:49;9.37;;;6.70;;
840;SDS011;406;48.566;13.450;2022-11-20T09:09:18;14.20;;;8.07;;
840;SDS011;406;48.566;13.450;2022-11-20T09:11:46;10.43;;;7.13;;
840;SDS011;406;48.566;13.450;2022-11-20T09:14:12;11.93;;;7.57;;
840;SDS011;406;48.566;13.450;2022-11-20T09:16:37;11.70;;;7.60;;
840;SDS011;406;48.566;13.450;2022-11-20T09:19:03;11.20;;;7.57;;
840;SDS011;406;48.566;13.450;2022-11-20T09:21:28;9.93;;;7.00;;
840;SDS011;406;48.566;13.450;2022-11-20T09:23:54;16.10;;;9.03;;
840;SDS011;406;48.566;13.450;2022-11-20T09:26:19;9.80;;;6.97;;
840;SDS011;406;48.566;13.450;2022-11-20T09:28:45;15.53;;;6.63;;
840;SDS011;406;48.566;13.450;2022-11-20T09:31:18;10.23;;;6.77;;
840;SDS011;406;48.566;13.450;2022-11-20T09:33:46;11.30;;;8.37;;
840;SDS011;406;48.566;13.450;2022-11-20T09:36:12;9.30;;;7.27;;
840;SDS011;406;48.566;13.450;2022-11-20T09:38:37;12.27;;;8.53;;
840;SDS011;406;48.566;13.450;2022-11-20T09:41:04;10.30;;;7.53;;
840;SDS011;406;48.566;13.450;2022-11-20T09:43:48;11.13;;;7.23;;
840;SDS011;406;48.566;13.450;2022-11-20T09:51:59;12.43;;;8.90;;
840;SDS011;406;48.566;13.450;2022-11-20T09:54:27;16.37;;;9.23;;
840;SDS011;406;48.566;13.450;2022-11-20T09:56:59;14.47;;;8.70;;
840;SDS011;406;48.566;13.450;2022-11-20T09:59:28;15.83;;;9.63;;
840;SDS011;406;48.566;13.450;2022-11-20T10:01:58;11.70;;;7.50;;
840;SDS011;406;48.566;13.450;2022-11-20T10:04:24;14.07;;;8.90;;
840;SDS011;406;48.566;13.450;2022-11-20T10:06:52;13.93;;;9.77;;
840;SDS011;406;48.566;13.450;2022-11-20T10:09:33;12.10;;;8.90;;
840;SDS011;406;48.566;13.450;2022-11-20T10:20:17;15.03;;;9.33;;
840;SDS011;406;48.566;13.450;2022-11-20T10:26:15;15.47;;;9.30;;
840;SDS011;406;48.566;13.450;2022-11-20T10:31:39;16.60;;;9.60;;
840;SDS011;406;48.566;13.450;2022-11-20T10:34:22;17.10;;;11.03;;
840;SDS011;406;48.566;13.450;2022-11-20T10:37:02;12.83;;;10.00;;
840;SDS011;406;48.566;13.450;2022-11-20T10:39:51;18.50;;;10.83;;
840;SDS011;406;48.566;13.450;2022-11-20T10:42:42;14.03;;;8.83;;
840;SDS011;406;48.566;13.450;2022-11-20T10:47:49;12.20;;;9.33;;
840;SDS011;406;48.566;13.450;2022-11-20T10:50:16;16.20;;;10.03;;
840;SDS011;406;48.566;13.450;2022-11-20T10:58:40;11.33;;;8.80;;
840;SDS011;406;48.566;13.450;2022-11-20T11:01:17;17.10;;;10.50;;
840;SDS011;406;48.566;13.450;2022-11-20T11:03:44;13.10;;;8.73;;
840;SDS011;406;48.566;13.450;2022-11-20T11:06:17;11.97;;;9.07;;
840;SDS011;406;48.566;13.450;2022-11-20T11:08:44;14.17;;;8.63;;
840;SDS011;406;48.566;13.450;2022-11-20T11:13:47;10.53;;;7.20;;
840;SDS011;406;48.566;13.450;2022-11-20T11:16:23;11.57;;;8.13;;
840;SDS011;406;48.566;13.450;2022-11-20T11:18:50;15.63;;;10.00;;
840;SDS011;406;48.566;13.450;2022-11-20T11:21:24;10.77;;;7.40;;
840;SDS011;406;48.566;13.450;2022-11-20T11:23:57;14.90;;;8.50;;
840;SDS011;406;48.566;13.450;2022-11-20T11:26:28;10.17;;;7.43;;
840;SDS011;406;48.566;13.450;2022-11-20T11:28:55;10.87;;;7.83;;
840;SDS011;406;48.566;13.450;2022-11-20T11:31:22;13.03;;;7.53;;
840;SDS011;406;48.566;13.450;2022-11-20T11:34:05;9.23;;;7.30;;
840;SDS011;406;48.566;13.450;2022-11-20T11:36:31;11.30;;;7.53;;
840;SDS011;406;48.566;13.450;2022-11-20T11:38:58;8.43;;;5.70;;
840;SDS011;406;48.566;13.450;2022-11-20T11:41:25;7.73;;;5.73;;
840;SDS011;406;48.566;13.450;2022-11-20T11:43:58;9.57;;;6.30;;
840;SDS011;406;48.566;13.450;2022-11-20T11:46:54;8.30;;;6.10;;
840;SDS011;406;48.566;13.450;2022-11-20T11:49:20;7.70;;;5.60;;
840;SDS011;406;48.566;13.450;2022-11-20T11:54:24;6.00;;;4.83;;
840;SDS011;406;48.566;13.450;2022-11-20T11:56:53;7.73;;;4.90;;
840;SDS011;406;48.566;13.450;2022-11-20T11:59:27;5.07;;;4.57;;
840;SDS011;406;48.566;13.450;2022-11-20T12:01:58;5.77;;;5.00;;
840;SDS011;406;48.566;13.450;2022-11-20T12:07:08;4.60;;;4.17;;
840;SDS011;406;48.566;13.450;2022-11-20T12:09:37;3.63;;;3.33;;
840;SDS011;406;48.566;13.450;2022-11-20T12:12:10;3.77;;;3.37;;
840;SDS011;406;48.566;13.450;2022-11-20T12:14:40;5.00;;;2.80;;
840;SDS011;406;48.566;13.450;2022-11-20T12:17:12;4.17;;;3.43;;
840;SDS011;406;48.566;13.450;2022-11-20T12:19:38;3.60;;;3.30;;
840;SDS011;406;48.566;13.450;2022-11-20T12:24:44;5.00;;;2.47;;
840;SDS011;406;48.566;13.450;2022-11-20T12:27:43;4.10;;;3.37;;
840;SDS011;406;48.566;13.450;2022-11-20T12:30:18;3.37;;;2.80;;
840;SDS011;406;48.566;13.450;2022-11-20T12:41:11;3.23;;;2.40;;
840;SDS011;406;48.566;13.450;2022-11-20T12:50:02;3.60;;;2.50;;
840;SDS011;406;48.566;13.450;2022-11-20T12:52:51;4.70;;;2.47;;
840;SDS011;406;48.566;13.450;2022-11-20T12:58:20;2.60;;;1.93;;
840;SDS011;406;48.566;13.450;2022-11-20T13:00:54;4.20;;;2.07;;
840;SDS011;406;48.566;13.450;2022-11-20T13:03:31;2.67;;;1.80;;
840;SDS011;406;48.566;13.450;2022-11-20T13:08:56;3.00;;;1.80;;
840;SDS011;406;48.566;13.450;2022-11-20T13:11:30;3.77;;;2.50;;
840;SDS011;406;48.566;13.450;2022-11-20T13:14:13;3.37;;;2.30;;
840;SDS011;406;48.566;13.450;2022-11-20T13:16:46;3.20;;;2.40;;
840;SDS011;406;48.566;13.450;2022-11-20T13:19:16;2.10;;;1.90;;
840;SDS011;406;48.566;13.450;2022-11-20T13:21:43;3.70;;;2.47;;
840;SDS011;406;48.566;13.450;2022-11-20T13:27:01;3.50;;;2.47;;
840;SDS011;406;48.566;13.450;2022-11-20T13:29:31;3.73;;;2.23;;
840;SDS011;406;48.566;13.450;2022-11-20T13:32:05;5.03;;;2.80;;
840;SDS011;406;48.566;13.450;2022-11-20T13:34:32;4.23;;;2.90;;
840;SDS011;406;48.566;13.450;2022-11-20T13:36:59;4.30;;;2.90;;
840;SDS011;406;48.566;13.450;2022-11-20T13:39:32;3.20;;;2.67;;
840;SDS011;406;48.566;13.450;2022-11-20T13:42:02;3.30;;;2.83;;
840;SDS011;406;48.566;13.450;2022-11-20T13:44:53;4.90;;;2.67;;
840;SDS011;406;48.566;13.450;2022-11-20T13:47:26;4.80;;;3.13;;
840;SDS011;406;48.566;13.450;2022-11-20T13:49:53;5.10;;;3.70;;
840;SDS011;406;48.566;13.450;2022-11-20T13:57:57;3.87;;;2.60;;
840;SDS011;406;48.566;13.450;2022-11-20T14:00:28;6.00;;;2.70;;
840;SDS011;406;48.566;13.450;2022-11-20T14:03:01;3.33;;;2.87;;
840;SDS011;406;48.566;13.450;2022-11-20T14:05:30;4.47;;;2.90;;
840;SDS011;406;48.566;13.450;2022-11-20T14:08:00;6.23;;;4.17;;
840;SDS011;406;48.566;13.450;2022-11-20T14:10:28;4.00;;;2.70;;
840;SDS011;406;48.566;13.450;2022-11-20T14:12:54;4.90;;;3.80;;
840;SDS011;406;48.566;13.450;2022-11-20T14:15:30;4.20;;;3.17;;
840;SDS011;406;48.566;13.450;2022-11-20T14:17:57;3.07;;;2.77;;
840;SDS011;406;48.566;13.450;2022-11-20T14:20:26;3.30;;;3.00;;
840;SDS011;406;48.566;13.450;2022-11-20T14:22:53;3.33;;;2.87;;
840;SDS011;406;48.566;13.450;2022-11-20T14:25:21;3.30;;;2.70;;
840;SDS011;406;48.566;13.450;2022-11-20T14:27:50;3.77;;;2.67;;
840;SDS011;406;48.566;13.450;2022-11-20T14:30:25;2.80;;;2.40;;
840;SDS011;406;48.566;13.450;2022-11-20T14:32:56;2.77;;;2.43;;
840;SDS011;406;48.566;13.450;2022-11-20T14:35:26;4.50;;;2.37;;
840;SDS011;406;48.566;13.450;2022-11-20T14:37:53;2.10;;;1.83;;
840;SDS011;406;48.566;13.450;2022-11-20T14:40:23;2.40;;;2.17;;
840;SDS011;406;48.566;13.450;2022-11-20T14:42:49;3.60;;;1.97;;
840;SDS011;406;48.566;13.450;2022-11-20T14:45:14;3.43;;;1.70;;
840;SDS011;406;48.566;13.450;2022-11-20T14:47:41;2.33;;;1.90;;
840;SDS011;406;48.566;13.450;2022-11-20T14:50:18;2.83;;;2.53;;
840;SDS011;406;48.566;13.450;2022-11-20T14:52:50;4.50;;;2.03;;
840;SDS011;406;48.566;13.450;2022-11-20T14:55:25;2.17;;;1.50;;
840;SDS011;406;48.566;13.450;2022-11-20T14:57:58;2.60;;;2.23;;
840;SDS011;406;48.566;13.450;2022-11-20T15:00:25;4.43;;;2.23;;
840;SDS011;406;48.566;13.450;2022-11-20T15:02:51;2.73;;;2.00;;
840;SDS011;406;48.566;13.450;2022-11-20T15:05:18;4.77;;;2.20;;
840;SDS011;406;48.566;13.450;2022-11-20T15:07:46;2.73;;;1.70;;
840;SDS011;406;48.566;13.450;2022-11-20T15:10:24;3.50;;;2.00;;
840;SDS011;406;48.566;13.450;2022-11-20T15:12:51;1.77;;;1.57;;
840;SDS011;406;48.566;13.450;2022-11-20T15:15:32;3.60;;;2.10;;
840;SDS011;406;48.566;13.450;2022-11-20T15:18:01;2.77;;;1.80;;
840;SDS011;406;48.566;13.450;2022-11-20T15:20:29;2.10;;;1.53;;
840;SDS011;406;48.566;13.450;2022-11-20T15:22:56;1.60;;;1.50;;
840;SDS011;406;48.566;13.450;2022-11-20T15:25:22;2.10;;;1.67;;
840;SDS011;406;48.566;13.450;2022-11-20T15:27:51;2.70;;;2.13;;
840;SDS011;406;48.566;13.450;2022-11-20T15:30:19;3.00;;;2.37;;
840;SDS011;406;48.566;13.450;2022-11-20T15:32:45;4.90;;;2.23;;
840;SDS011;406;48.566;13.450;2022-11-20T15:35:12;5.83;;;2.83;;
840;SDS011;406;48.566;13.450;2022-11-20T15:37:38;4.10;;;2.20;;
840;SDS011;406;48.566;13.450;2022-11-20T15:40:04;3.30;;;2.03;;
840;SDS011;406;48.566;13.450;2022-11-20T15:42:30;4.47;;;2.30;;
840;SDS011;406;48.566;13.450;2022-11-20T15:44:55;1.93;;;1.70;;
840;SDS011;406;48.566;13.450;2022-11-20T15:47:22;2.30;;;1.93;;
840;SDS011;406;48.566;13.450;2022-11-20T15:49:51;2.83;;;1.63;;
840;SDS011;406;48.566;13.450;2022-11-20T15:52:16;2.87;;;2.47;;
840;SDS011;406;48.566;13.450;2022-11-20T15:54:41;2.00;;;1.50;;
840;SDS011;406;48.566;13.450;2022-11-20T15:57:07;2.50;;;1.87;;
840;SDS011;406;48.566;13.450;2022-11-20T15:59:32;2.23;;;1.60;;
840;SDS011;406;48.566;13.450;2022-11-20T16:01:58;2.30;;;1.97;;
840;SDS011;406;48.566;13.450;2022-11-20T16:04:23;3.07;;;1.83;;
840;SDS011;406;48.566;13.450;2022-11-20T16:06:49;2.13;;;1.70;;
840;SDS011;406;48.566;13.450;2022-11-20T16:09:14;3.17;;;2.07;;
840;SDS011;406;48.566;13.450;2022-11-20T16:11:40;2.90;;;2.10;;
840;SDS011;406;48.566;13.450;2022-11-20T16:14:05;2.33;;;1.80;;
840;SDS011;406;48.566;13.450;2022-11-20T16:16:49;1.90;;;1.60;;
840;SDS011;406;48.566;13.450;2022-11-20T16:19:15;3.57;;;2.10;;
840;SDS011;406;48.566;13.450;2022-11-20T16:21:42;2.13;;;1.90;;
840;SDS011;406;48.566;13.450;2022-11-20T16:24:09;2.70;;;1.50;;
840;SDS011;406;48.566;13.450;2022-11-20T16:26:36;2.90;;;1.77;;
840;SDS011;406;48.566;13.450;2022-11-20T16:29:02;1.57;;;1.47;;
840;SDS011;406;48.566;13.450;2022-11-20T16:31:28;2.20;;;1.90;;